createdAt,value
2022-08-17T00:00:35.022Z,95.30
2022-08-17T00:03:10.058Z,95.50
2022-08-17T00:05:43.632Z,95.80
2022-08-17T00:08:12.523Z,96.10
2022-08-17T00:10:41.011Z,96.30
2022-08-17T00:13:16.671Z,96.80
2022-08-17T00:15:44.989Z,97.80
2022-08-17T00:19:01.925Z,98.60
2022-08-17T00:21:10.728Z,99.40
2022-08-17T00:23:49.068Z,99.90
2022-08-17T00:26:44.012Z,99.90
2022-08-17T00:29:07.721Z,99.90
2022-08-17T00:31:35.777Z,99.90
2022-08-17T00:34:06.197Z,99.90
2022-08-17T00:36:34.111Z,99.90
2022-08-17T00:39:02.032Z,99.90
2022-08-17T00:41:30.989Z,99.90
2022-08-17T00:44:02.650Z,99.90
2022-08-17T00:46:32.932Z,99.90
2022-08-17T00:49:01.482Z,99.90
2022-08-17T00:51:34.276Z,99.90
2022-08-17T00:54:07.890Z,99.90
2022-08-17T00:56:40.876Z,99.90
2022-08-17T00:59:10.585Z,99.90
2022-08-17T01:01:40.153Z,99.90
2022-08-17T01:04:09.543Z,99.90
2022-08-17T01:06:39.110Z,99.90
2022-08-17T01:09:08.683Z,99.90
2022-08-17T01:11:37.220Z,99.90
2022-08-17T01:14:05.137Z,99.90
2022-08-17T01:16:33.610Z,99.90
2022-08-17T01:19:04.155Z,99.90
2022-08-17T01:21:38.881Z,99.90
2022-08-17T01:24:08.959Z,99.90
2022-08-17T01:26:38.056Z,99.90
2022-08-17T01:29:07.463Z,99.90
2022-08-17T01:31:39.989Z,99.90
2022-08-17T01:34:11.122Z,99.90
2022-08-17T01:36:40.679Z,99.90
2022-08-17T01:39:18.050Z,99.90
2022-08-17T01:41:47.547Z,99.90
2022-08-17T01:44:17.662Z,99.90
2022-08-17T01:46:45.828Z,99.90
2022-08-17T01:49:13.942Z,99.90
2022-08-17T01:51:41.921Z,99.90
2022-08-17T01:54:14.522Z,99.90
2022-08-17T01:56:47.475Z,99.90
2022-08-17T01:59:16.605Z,99.90
2022-08-17T02:01:45.090Z,99.90
2022-08-17T02:04:13.297Z,99.90
2022-08-17T02:06:52.360Z,99.90
2022-08-17T02:09:25.486Z,99.90
2022-08-17T02:11:54.742Z,99.90
2022-08-17T02:14:23.373Z,99.90
2022-08-17T02:16:51.891Z,99.90
2022-08-17T02:19:19.940Z,99.90
2022-08-17T02:21:49.551Z,99.90
2022-08-17T02:24:59.843Z,99.90
2022-08-17T02:27:10.436Z,99.90
2022-08-17T02:29:38.906Z,99.90
2022-08-17T02:32:07.258Z,99.90
2022-08-17T02:34:35.231Z,99.90
2022-08-17T02:37:03.194Z,99.90
2022-08-17T02:39:31.443Z,99.90
2022-08-17T02:42:02.524Z,99.90
2022-08-17T02:44:38.794Z,99.90
2022-08-17T02:47:09.279Z,99.90
2022-08-17T02:49:37.797Z,99.90
2022-08-17T02:52:07.731Z,99.90
2022-08-17T02:54:41.055Z,99.90
2022-08-17T02:57:10.513Z,99.90
2022-08-17T02:59:43.298Z,99.90
2022-08-17T03:02:16.407Z,99.90
2022-08-17T03:04:44.357Z,99.90
2022-08-17T03:07:12.957Z,99.90
2022-08-17T03:09:40.862Z,99.90
2022-08-17T03:12:12.871Z,99.90
2022-08-17T03:14:43.243Z,99.90
2022-08-17T03:17:17.182Z,99.90
2022-08-17T03:19:45.624Z,99.90
2022-08-17T03:22:35.398Z,99.90
2022-08-17T03:25:01.787Z,99.90
2022-08-17T03:27:30.194Z,99.90
2022-08-17T03:29:59.782Z,99.90
2022-08-17T03:32:28.008Z,99.90
2022-08-17T03:35:03.199Z,99.90
2022-08-17T03:37:31.163Z,99.90
2022-08-17T03:39:59.147Z,99.90
2022-08-17T03:42:31.792Z,99.90
2022-08-17T03:45:03.074Z,99.90
2022-08-17T03:47:49.731Z,99.90
2022-08-17T03:50:35.559Z,99.90
2022-08-17T03:53:25.231Z,99.90
2022-08-17T03:56:13.502Z,99.90
2022-08-17T03:58:42.153Z,99.90
2022-08-17T04:01:11.673Z,99.90
2022-08-17T04:03:39.858Z,99.90
2022-08-17T04:06:08.582Z,99.90
2022-08-17T04:08:36.582Z,99.90
2022-08-17T04:11:04.478Z,99.90
2022-08-17T04:13:32.474Z,99.90
2022-08-17T04:16:00.527Z,99.90
2022-08-17T04:18:29.783Z,99.90
2022-08-17T04:20:57.769Z,99.90
2022-08-17T04:23:32.678Z,99.90
2022-08-17T04:26:00.744Z,99.90
2022-08-17T04:28:28.861Z,99.90
2022-08-17T04:30:56.922Z,99.90
2022-08-17T04:33:26.333Z,99.90
2022-08-17T04:35:58.022Z,99.90
2022-08-17T04:38:28.131Z,99.90
2022-08-17T04:41:15.292Z,99.90
2022-08-17T04:43:44.921Z,99.90
2022-08-17T04:46:14.573Z,99.90
2022-08-17T04:48:44.921Z,99.90
2022-08-17T04:51:16.475Z,99.90
2022-08-17T04:53:54.128Z,99.20
2022-08-17T04:56:23.622Z,97.40
2022-08-17T04:58:53.472Z,95.70
2022-08-17T05:01:24.537Z,94.30
2022-08-17T05:03:53.171Z,92.60
2022-08-17T05:06:23.112Z,91.40
2022-08-17T05:08:51.233Z,90.80
2022-08-17T05:11:19.543Z,90.20
2022-08-17T05:13:50.189Z,89.50
2022-08-17T05:16:18.997Z,86.60
2022-08-17T05:18:47.768Z,84.10
2022-08-17T05:21:16.205Z,82.00
2022-08-17T05:23:54.713Z,77.90
2022-08-17T05:26:26.953Z,76.80
2022-08-17T05:28:59.486Z,74.10
2022-08-17T05:31:29.464Z,69.40
2022-08-17T05:33:57.669Z,64.70
2022-08-17T05:36:37.844Z,61.50
2022-08-17T05:39:16.694Z,61.70
2022-08-17T05:41:47.670Z,60.40
2022-08-17T05:44:16.235Z,59.40
2022-08-17T05:46:49.897Z,58.50
2022-08-17T05:49:20.382Z,58.40
2022-08-17T05:52:09.392Z,57.20
2022-08-17T05:54:51.721Z,54.70
2022-08-17T05:57:43.578Z,53.30
2022-08-17T06:00:31.105Z,52.60
2022-08-17T06:03:16.604Z,53.80
2022-08-17T06:05:56.368Z,54.60
2022-08-17T06:08:35.929Z,53.70
2022-08-17T06:11:15.440Z,50.50
2022-08-17T06:13:56.079Z,49.40
2022-08-17T06:16:34.355Z,49.20
2022-08-17T06:19:10.699Z,48.10
2022-08-17T06:21:43.684Z,48.90
2022-08-17T06:24:24.855Z,50.00
2022-08-17T06:26:56.568Z,50.00
2022-08-17T06:29:41.949Z,50.80
2022-08-17T06:32:14.647Z,49.50
2022-08-17T06:34:46.162Z,46.10
2022-08-17T06:37:43.159Z,43.90
2022-08-17T06:40:25.227Z,40.80
2022-08-17T06:43:07.342Z,38.40
2022-08-17T06:45:39.039Z,36.30
2022-08-17T06:48:13.778Z,34.90
2022-08-17T06:50:50.219Z,34.70
2022-08-17T06:53:24.070Z,34.30
2022-08-17T06:55:57.900Z,33.20
2022-08-17T06:58:31.530Z,32.30
2022-08-17T07:01:07.285Z,31.70
2022-08-17T07:03:41.613Z,31.20
2022-08-17T07:06:15.357Z,30.90
2022-08-17T07:08:52.300Z,30.40
2022-08-17T07:11:28.538Z,30.10
2022-08-17T07:14:07.214Z,29.60
2022-08-17T07:16:48.239Z,29.20
2022-08-17T07:19:17.848Z,28.40
2022-08-17T07:21:57.237Z,28.20
2022-08-17T07:24:37.313Z,28.00
2022-08-17T07:27:09.399Z,27.50
2022-08-17T07:29:52.138Z,27.20
2022-08-17T07:32:25.041Z,26.90
2022-08-17T07:35:16.429Z,26.90
2022-08-17T07:37:50.931Z,26.50
2022-08-17T07:40:29.886Z,26.40
2022-08-17T07:43:23.580Z,26.30
2022-08-17T07:46:22.453Z,26.60
2022-08-17T07:48:54.061Z,26.20
2022-08-17T07:51:27.716Z,26.10
2022-08-17T07:54:13.168Z,26.50
2022-08-17T07:56:46.366Z,26.70
2022-08-17T07:59:21.014Z,26.60
2022-08-17T08:02:17.664Z,26.50
2022-08-17T08:05:00.697Z,26.40
2022-08-17T08:07:34.730Z,25.80
2022-08-17T08:10:08.343Z,25.50
2022-08-17T08:12:40.219Z,25.80
2022-08-17T08:15:17.810Z,26.00
2022-08-17T08:17:56.208Z,25.90
2022-08-17T08:20:51.106Z,25.90
2022-08-17T08:23:40.310Z,25.80
2022-08-17T08:26:26.411Z,25.90
2022-08-17T08:29:03.748Z,25.90
2022-08-17T08:31:53.488Z,25.70
2022-08-17T08:35:00.854Z,26.20
2022-08-17T08:37:36.758Z,25.30
2022-08-17T08:40:14.500Z,25.30
2022-08-17T08:42:50.770Z,25.10
2022-08-17T08:45:28.369Z,24.70
2022-08-17T08:48:45.860Z,24.80
2022-08-17T08:51:16.815Z,25.20
2022-08-17T08:53:54.564Z,25.40
2022-08-17T08:57:19.755Z,25.10
2022-08-17T08:59:58.058Z,25.70
2022-08-17T09:02:54.259Z,24.70
2022-08-17T09:05:38.135Z,25.00
2022-08-17T09:08:23.492Z,24.50
2022-08-17T09:11:01.234Z,24.50
2022-08-17T09:13:38.396Z,24.10
2022-08-17T09:16:16.314Z,24.20
2022-08-17T09:19:03.565Z,24.40
2022-08-17T09:21:48.477Z,24.10
2022-08-17T09:24:26.145Z,24.10
2022-08-17T09:27:01.194Z,24.10
2022-08-17T09:29:35.331Z,23.90
2022-08-17T09:32:14.322Z,23.80
2022-08-17T09:34:49.368Z,23.60
2022-08-17T09:37:23.496Z,23.30
2022-08-17T09:40:09.101Z,23.40
2022-08-17T09:42:47.121Z,23.40
2022-08-17T09:45:29.659Z,23.30
2022-08-17T09:48:03.109Z,23.30
2022-08-17T09:51:04.094Z,22.90
2022-08-17T09:53:25.760Z,22.70
2022-08-17T09:56:07.747Z,21.80
2022-08-17T09:58:49.748Z,21.80
2022-08-17T10:01:29.185Z,21.90
2022-08-17T10:04:11.874Z,21.80
2022-08-17T10:06:52.673Z,22.10
2022-08-17T10:09:33.942Z,22.20
2022-08-17T10:12:17.783Z,21.90
2022-08-17T10:14:59.505Z,21.90
2022-08-17T10:17:42.002Z,21.80
2022-08-17T10:20:15.001Z,21.60
2022-08-17T10:23:06.592Z,21.50
2022-08-17T10:25:56.389Z,21.20
2022-08-17T10:28:31.025Z,20.70
2022-08-17T10:31:33.113Z,20.70
2022-08-17T10:34:09.763Z,21.30
2022-08-17T10:36:48.372Z,21.40
2022-08-17T10:39:26.866Z,21.60
2022-08-17T10:41:59.734Z,21.70
2022-08-17T10:44:42.809Z,21.60
2022-08-17T10:47:15.733Z,21.80
2022-08-17T10:49:48.083Z,22.00
2022-08-17T10:52:50.153Z,22.80
2022-08-17T10:55:20.431Z,23.40
2022-08-17T10:57:50.639Z,23.50
2022-08-17T11:01:02.347Z,23.10
2022-08-17T11:03:33.690Z,22.60
2022-08-17T11:06:12.780Z,23.00
2022-08-17T11:09:22.468Z,23.30
2022-08-17T11:12:09.362Z,23.70
2022-08-17T11:15:14.989Z,23.80
2022-08-17T11:18:02.172Z,23.70
2022-08-17T11:20:47.369Z,23.10
2022-08-17T11:23:52.678Z,22.80
2022-08-17T11:26:26.407Z,22.60
2022-08-17T11:29:00.152Z,22.50
2022-08-17T11:31:38.574Z,22.60
2022-08-17T11:34:18.472Z,22.80
2022-08-17T11:37:21.330Z,23.30
2022-08-17T11:40:13.501Z,23.80
2022-08-17T11:42:56.387Z,24.00
2022-08-17T11:45:56.015Z,24.00
2022-08-17T11:48:50.871Z,24.10
2022-08-17T11:51:36.031Z,24.70
2022-08-17T11:57:00.159Z,25.40
2022-08-17T11:59:58.552Z,25.00
2022-08-17T12:02:47.910Z,24.40
2022-08-17T12:05:36.283Z,24.80
2022-08-17T12:08:20.284Z,25.30
2022-08-17T12:10:59.148Z,25.30
2022-08-17T12:13:38.451Z,25.10
2022-08-17T12:16:10.057Z,24.90
2022-08-17T12:18:42.198Z,25.40
2022-08-17T12:21:27.057Z,25.00
2022-08-17T12:24:03.272Z,26.10
2022-08-17T12:26:33.994Z,26.30
2022-08-17T12:29:05.060Z,26.90
2022-08-17T12:31:37.603Z,27.10
2022-08-17T12:34:06.067Z,26.80
2022-08-17T12:36:34.745Z,26.40
2022-08-17T12:39:13.297Z,26.40
2022-08-17T12:41:47.461Z,26.20
2022-08-17T12:44:18.888Z,26.30
2022-08-17T12:46:50.648Z,26.20
2022-08-17T12:49:29.595Z,26.50
2022-08-17T12:52:12.423Z,26.60
2022-08-17T12:54:47.480Z,26.90
2022-08-17T12:57:20.597Z,27.10
2022-08-17T12:59:54.363Z,28.00
2022-08-17T13:02:33.622Z,27.60
2022-08-17T13:05:02.940Z,28.10
2022-08-17T13:07:35.142Z,27.70
2022-08-17T13:10:03.583Z,27.90
2022-08-17T13:12:36.648Z,27.70
2022-08-17T13:15:05.231Z,27.90
2022-08-17T13:17:36.467Z,28.00
2022-08-17T13:20:14.712Z,28.10
2022-08-17T13:22:45.290Z,28.10
2022-08-17T13:25:17.768Z,27.80
2022-08-17T13:27:49.223Z,27.60
2022-08-17T13:30:24.850Z,27.60
2022-08-17T13:32:53.972Z,27.70
2022-08-17T13:35:39.898Z,28.00
2022-08-17T13:38:11.550Z,28.40
2022-08-17T13:40:43.673Z,28.50
2022-08-17T13:43:13.355Z,29.20
2022-08-17T13:45:51.785Z,29.60
2022-08-17T13:48:26.262Z,29.90
2022-08-17T13:51:26.310Z,30.30
2022-08-17T13:54:20.088Z,30.90
2022-08-17T13:56:55.658Z,31.10
2022-08-17T13:59:36.375Z,31.40
2022-08-17T14:02:21.181Z,31.50
2022-08-17T14:04:50.241Z,31.50
2022-08-17T14:07:38.251Z,31.70
2022-08-17T14:10:12.247Z,31.40
2022-08-17T14:12:45.048Z,31.30
2022-08-17T14:15:16.957Z,31.40
2022-08-17T14:17:49.657Z,31.00
2022-08-17T14:20:20.761Z,31.40
2022-08-17T14:22:51.252Z,31.60
2022-08-17T14:25:21.765Z,32.00
2022-08-17T14:27:53.158Z,32.10
2022-08-17T14:30:25.122Z,31.80
2022-08-17T14:32:53.683Z,31.80
2022-08-17T14:35:23.875Z,31.90
2022-08-17T14:37:53.039Z,32.00
2022-08-17T14:40:24.907Z,32.10
2022-08-17T14:42:54.434Z,31.50
2022-08-17T14:45:29.850Z,31.50
2022-08-17T14:48:04.192Z,30.90
2022-08-17T14:50:35.305Z,30.60
2022-08-17T14:53:04.470Z,30.80
2022-08-17T14:55:32.580Z,31.20
2022-08-17T14:58:01.104Z,31.50
2022-08-17T15:00:31.495Z,32.30
2022-08-17T15:03:01.394Z,33.10
2022-08-17T15:05:33.747Z,34.90
2022-08-17T15:08:03.225Z,35.60
2022-08-17T15:10:31.745Z,35.90
2022-08-17T15:13:00.305Z,36.60
2022-08-17T15:15:30.511Z,37.00
2022-08-17T15:17:59.953Z,37.30
2022-08-17T15:20:30.761Z,37.70
2022-08-17T15:22:59.839Z,38.40
2022-08-17T15:25:30.435Z,38.60
2022-08-17T15:27:58.956Z,38.70
2022-08-17T15:30:27.635Z,38.80
2022-08-17T15:32:58.680Z,39.20
2022-08-17T15:35:30.023Z,39.40
2022-08-17T15:38:07.934Z,39.80
2022-08-17T15:40:39.993Z,39.80
2022-08-17T15:43:11.019Z,40.00
2022-08-17T15:45:40.171Z,40.00
2022-08-17T15:48:10.250Z,40.20
2022-08-17T15:50:38.430Z,40.50
2022-08-17T15:53:06.384Z,40.70
2022-08-17T15:55:36.630Z,41.00
2022-08-17T15:58:05.400Z,41.00
2022-08-17T16:00:44.107Z,41.00
2022-08-17T16:03:59.287Z,41.10
2022-08-17T16:06:12.099Z,41.00
2022-08-17T16:08:41.886Z,41.60
2022-08-17T16:11:11.253Z,41.40
2022-08-17T16:13:40.688Z,41.40
2022-08-17T16:16:09.588Z,41.60
2022-08-17T16:18:40.042Z,41.90
2022-08-17T16:21:31.208Z,42.20
2022-08-17T16:24:13.440Z,42.00
2022-08-17T16:26:43.649Z,42.00
2022-08-17T16:29:12.011Z,41.90
2022-08-17T16:31:41.380Z,42.30
2022-08-17T16:34:17.333Z,42.00
2022-08-17T16:36:55.540Z,42.40
2022-08-17T16:39:25.600Z,42.60
2022-08-17T16:41:53.601Z,42.20
2022-08-17T16:44:22.656Z,42.30
2022-08-17T16:46:51.550Z,42.60
2022-08-17T16:49:31.559Z,43.10
2022-08-17T16:52:07.709Z,43.20
2022-08-17T16:54:38.043Z,43.40
2022-08-17T16:57:06.508Z,43.50
2022-08-17T16:59:39.603Z,43.70
2022-08-17T17:02:11.553Z,43.80
2022-08-17T17:04:46.716Z,43.80
2022-08-17T17:07:38.858Z,43.90
2022-08-17T17:10:10.859Z,44.30
2022-08-17T17:13:02.939Z,44.60
2022-08-17T17:15:39.718Z,44.80
2022-08-17T17:18:13.309Z,45.10
2022-08-17T17:20:51.059Z,45.10
2022-08-17T17:23:33.182Z,45.20
2022-08-17T17:26:11.085Z,45.30
2022-08-17T17:28:54.290Z,45.50
2022-08-17T17:31:26.335Z,45.80
2022-08-17T17:33:57.763Z,45.90
2022-08-17T17:36:32.654Z,45.90
2022-08-17T17:39:05.858Z,46.30
2022-08-17T17:41:47.366Z,46.50
2022-08-17T17:44:19.846Z,46.50
2022-08-17T17:46:52.489Z,46.70
2022-08-17T17:49:21.144Z,47.30
2022-08-17T17:52:08.614Z,47.10
2022-08-17T17:54:49.365Z,47.30
2022-08-17T17:57:24.808Z,47.40
2022-08-17T18:00:02.940Z,47.60
2022-08-17T18:02:51.910Z,47.80
2022-08-17T18:05:44.649Z,47.80
2022-08-17T18:08:34.333Z,48.00
2022-08-17T18:11:23.984Z,48.00
2022-08-17T18:14:04.710Z,48.20
2022-08-17T18:16:33.447Z,48.20
2022-08-17T18:19:02.020Z,48.40
2022-08-17T18:21:37.848Z,48.40
2022-08-17T18:24:10.534Z,48.70
2022-08-17T18:26:45.060Z,48.80
2022-08-17T18:29:27.094Z,49.20
2022-08-17T18:32:22.753Z,49.10
2022-08-17T18:34:54.651Z,49.20
2022-08-17T18:37:39.823Z,49.60
2022-08-17T18:40:39.291Z,49.80
2022-08-17T18:43:12.793Z,49.70
2022-08-17T18:45:48.285Z,50.00
2022-08-17T18:48:28.483Z,50.00
2022-08-17T18:51:00.396Z,50.10
2022-08-17T18:53:38.848Z,50.30
2022-08-17T18:56:30.725Z,50.40
2022-08-17T18:59:09.266Z,50.40
2022-08-17T19:01:52.584Z,51.20
2022-08-17T19:04:34.513Z,50.90
2022-08-17T19:07:28.105Z,51.20
2022-08-17T19:10:00.014Z,51.20
2022-08-17T19:12:40.194Z,51.20
2022-08-17T19:15:10.636Z,51.40
2022-08-17T19:17:45.360Z,51.60
2022-08-17T19:20:19.508Z,52.00
2022-08-17T19:23:06.833Z,51.80
2022-08-17T19:25:40.933Z,52.00
2022-08-17T19:28:22.562Z,52.20
2022-08-17T19:30:55.799Z,52.20
2022-08-17T19:33:27.263Z,52.30
2022-08-17T19:36:09.090Z,52.40
2022-08-17T19:38:53.462Z,52.50
2022-08-17T19:41:30.613Z,52.60
2022-08-17T19:44:28.597Z,52.90
2022-08-17T19:47:06.066Z,53.00
2022-08-17T19:49:48.817Z,53.30
2022-08-17T19:52:36.309Z,53.40
2022-08-17T19:55:21.773Z,53.60
2022-08-17T19:57:58.987Z,53.70
2022-08-17T20:00:32.088Z,54.10
2022-08-17T20:03:06.423Z,54.40
2022-08-17T20:06:01.359Z,54.30
2022-08-17T20:08:32.657Z,54.40
2022-08-17T20:11:05.883Z,54.90
2022-08-17T20:13:40.271Z,54.80
2022-08-17T20:16:14.506Z,54.90
2022-08-17T20:18:51.138Z,55.10
2022-08-17T20:21:27.368Z,55.20
2022-08-17T20:24:05.533Z,55.30
2022-08-17T20:26:55.186Z,55.70
2022-08-17T20:29:52.007Z,55.60
2022-08-17T20:32:35.279Z,55.90
2022-08-17T20:35:10.186Z,56.10
2022-08-17T20:37:43.259Z,56.10
2022-08-17T20:40:32.146Z,56.50
2022-08-17T20:43:00.688Z,56.50
2022-08-17T20:45:57.986Z,56.60
2022-08-17T20:48:38.480Z,56.80
2022-08-17T20:51:25.975Z,56.80
2022-08-17T20:54:35.740Z,56.90
2022-08-17T20:57:09.195Z,57.20
2022-08-17T21:00:13.949Z,57.30
2022-08-17T21:02:44.594Z,57.20
2022-08-17T21:05:34.580Z,57.40
2022-08-17T21:08:15.186Z,57.70
2022-08-17T21:10:46.867Z,57.70
2022-08-17T21:14:05.467Z,58.10
2022-08-17T21:16:42.396Z,58.30
2022-08-17T21:19:31.225Z,58.50
2022-08-17T21:22:16.047Z,58.70
2022-08-17T21:24:54.772Z,58.70
2022-08-17T21:27:34.922Z,59.00
2022-08-17T21:30:23.041Z,59.10
2022-08-17T21:33:17.774Z,59.20
2022-08-17T21:35:51.173Z,59.10
2022-08-17T21:38:23.223Z,59.00
2022-08-17T21:40:54.050Z,59.10
2022-08-17T21:43:26.308Z,59.30
2022-08-17T21:46:04.489Z,59.30
2022-08-17T21:48:41.488Z,59.30
2022-08-17T21:51:12.124Z,59.10
2022-08-17T21:53:47.136Z,59.40
2022-08-17T21:56:28.289Z,59.50
2022-08-17T21:59:00.438Z,59.50
2022-08-17T22:01:30.459Z,59.60
2022-08-17T22:04:01.947Z,59.50
2022-08-17T22:06:36.075Z,59.30
2022-08-17T22:09:13.705Z,59.40
2022-08-17T22:11:52.786Z,59.40
2022-08-17T22:14:22.446Z,59.40
2022-08-17T22:17:08.041Z,59.20
2022-08-17T22:19:39.651Z,59.30
2022-08-17T22:22:11.071Z,59.20
2022-08-17T22:24:40.424Z,59.60
2022-08-17T22:27:11.638Z,59.80
2022-08-17T22:29:57.603Z,60.00
2022-08-17T22:32:48.465Z,60.30
2022-08-17T22:35:42.137Z,60.50
2022-08-17T22:38:29.263Z,60.50
2022-08-17T22:41:32.027Z,60.50
2022-08-17T22:44:07.836Z,60.40
2022-08-17T22:46:42.856Z,60.50
2022-08-17T22:49:10.995Z,60.60
2022-08-17T22:51:43.796Z,60.70
2022-08-17T22:54:35.357Z,60.70
2022-08-17T22:57:23.962Z,60.70
2022-08-17T22:59:54.992Z,60.80
2022-08-17T23:02:26.420Z,61.00
2022-08-17T23:04:57.369Z,61.10
2022-08-17T23:07:25.406Z,61.40
2022-08-17T23:10:03.120Z,61.50
2022-08-17T23:12:32.504Z,61.40
2022-08-17T23:15:02.141Z,61.60
2022-08-17T23:17:36.886Z,61.60
2022-08-17T23:20:08.394Z,61.70
2022-08-17T23:22:38.291Z,61.70
2022-08-17T23:25:29.985Z,61.80
2022-08-17T23:28:01.940Z,62.20
2022-08-17T23:30:31.288Z,62.10
2022-08-17T23:33:01.201Z,62.40
2022-08-17T23:35:39.917Z,62.90
2022-08-17T23:38:09.851Z,63.00
2022-08-17T23:40:39.416Z,62.90
2022-08-17T23:43:17.456Z,63.20
2022-08-17T23:45:53.568Z,64.10
2022-08-17T23:48:35.290Z,63.70
2022-08-17T23:51:07.358Z,63.60
2022-08-17T23:53:36.746Z,63.80
2022-08-17T23:56:09.575Z,63.90
2022-08-17T23:58:42.254Z,64.00
